sensor_id;sensor_type;location;lat;lon;timestamp;P1;durP1;ratioP1;P2;durP2;ratioP2
13973;SDS011;7060;43.770;4.008;2022-09-14T00:01:42;5.03;;;1.88;;
13973;SDS011;7060;43.770;4.008;2022-09-14T00:04:11;6.60;;;1.52;;
13973;SDS011;7060;43.770;4.008;2022-09-14T00:06:42;5.20;;;1.42;;
13973;SDS011;7060;43.770;4.008;2022-09-14T00:09:12;6.00;;;1.50;;
13973;SDS011;7060;43.770;4.008;2022-09-14T00:11:42;4.18;;;1.55;;
13973;SDS011;7060;43.770;4.008;2022-09-14T00:14:10;5.88;;;1.70;;
13973;SDS011;7060;43.770;4.008;2022-09-14T00:16:39;2.63;;;1.60;;
13973;SDS011;7060;43.770;4.008;2022-09-14T00:19:14;3.53;;;1.95;;
13973;SDS011;7060;43.770;4.008;2022-09-14T00:21:44;4.20;;;1.73;;
13973;SDS011;7060;43.770;4.008;2022-09-14T00:24:12;3.42;;;1.38;;
13973;SDS011;7060;43.770;4.008;2022-09-14T00:26:41;4.05;;;1.75;;
13973;SDS011;7060;43.770;4.008;2022-09-14T00:29:09;7.93;;;2.08;;
13973;SDS011;7060;43.770;4.008;2022-09-14T00:31:38;6.38;;;1.95;;
13973;SDS011;7060;43.770;4.008;2022-09-14T00:34:08;5.10;;;1.52;;
13973;SDS011;7060;43.770;4.008;2022-09-14T00:36:41;3.88;;;1.83;;
13973;SDS011;7060;43.770;4.008;2022-09-14T00:39:12;5.18;;;2.08;;
13973;SDS011;7060;43.770;4.008;2022-09-14T00:41:41;6.68;;;1.98;;
13973;SDS011;7060;43.770;4.008;2022-09-14T00:47:12;4.07;;;1.63;;
13973;SDS011;7060;43.770;4.008;2022-09-14T00:49:43;7.63;;;2.45;;
13973;SDS011;7060;43.770;4.008;2022-09-14T00:52:13;7.80;;;2.47;;
13973;SDS011;7060;43.770;4.008;2022-09-14T00:54:47;8.00;;;2.63;;
13973;SDS011;7060;43.770;4.008;2022-09-14T00:57:18;5.38;;;2.20;;
13973;SDS011;7060;43.770;4.008;2022-09-14T00:59:47;8.77;;;2.28;;
13973;SDS011;7060;43.770;4.008;2022-09-14T01:02:20;6.55;;;2.08;;
13973;SDS011;7060;43.770;4.008;2022-09-14T01:04:50;6.63;;;2.17;;
13973;SDS011;7060;43.770;4.008;2022-09-14T01:07:26;8.63;;;2.25;;
13973;SDS011;7060;43.770;4.008;2022-09-14T01:10:06;8.07;;;2.90;;
13973;SDS011;7060;43.770;4.008;2022-09-14T01:12:48;6.55;;;2.28;;
13973;SDS011;7060;43.770;4.008;2022-09-14T01:15:30;5.65;;;2.28;;
13973;SDS011;7060;43.770;4.008;2022-09-14T01:18:08;7.05;;;2.25;;
13973;SDS011;7060;43.770;4.008;2022-09-14T01:20:43;9.13;;;2.92;;
13973;SDS011;7060;43.770;4.008;2022-09-14T01:23:16;5.18;;;2.22;;
13973;SDS011;7060;43.770;4.008;2022-09-14T01:28:49;7.82;;;1.70;;
13973;SDS011;7060;43.770;4.008;2022-09-14T01:31:24;6.53;;;1.83;;
13973;SDS011;7060;43.770;4.008;2022-09-14T01:34:00;4.25;;;1.80;;
13973;SDS011;7060;43.770;4.008;2022-09-14T01:36:35;5.93;;;1.98;;
13973;SDS011;7060;43.770;4.008;2022-09-14T01:39:07;7.75;;;1.90;;
13973;SDS011;7060;43.770;4.008;2022-09-14T01:41:37;6.25;;;1.83;;
13973;SDS011;7060;43.770;4.008;2022-09-14T01:44:09;8.30;;;2.10;;
13973;SDS011;7060;43.770;4.008;2022-09-14T01:46:44;5.57;;;2.08;;
13973;SDS011;7060;43.770;4.008;2022-09-14T01:49:15;4.70;;;1.95;;
13973;SDS011;7060;43.770;4.008;2022-09-14T01:51:46;7.00;;;2.00;;
13973;SDS011;7060;43.770;4.008;2022-09-14T01:54:17;5.60;;;1.85;;
13973;SDS011;7060;43.770;4.008;2022-09-14T01:56:50;9.13;;;2.00;;
13973;SDS011;7060;43.770;4.008;2022-09-14T01:59:24;15.57;;;2.35;;
13973;SDS011;7060;43.770;4.008;2022-09-14T02:01:55;6.22;;;1.73;;
13973;SDS011;7060;43.770;4.008;2022-09-14T02:04:30;10.35;;;2.17;;
13973;SDS011;7060;43.770;4.008;2022-09-14T02:07:04;6.28;;;1.80;;
13973;SDS011;7060;43.770;4.008;2022-09-14T02:09:33;4.80;;;1.67;;
13973;SDS011;7060;43.770;4.008;2022-09-14T02:12:01;3.38;;;1.40;;
13973;SDS011;7060;43.770;4.008;2022-09-14T02:14:31;5.57;;;1.90;;
13973;SDS011;7060;43.770;4.008;2022-09-14T02:17:00;6.03;;;1.63;;
13973;SDS011;7060;43.770;4.008;2022-09-14T02:19:29;4.57;;;1.48;;
13973;SDS011;7060;43.770;4.008;2022-09-14T02:22:02;5.72;;;1.73;;
13973;SDS011;7060;43.770;4.008;2022-09-14T02:24:30;9.65;;;1.70;;
13973;SDS011;7060;43.770;4.008;2022-09-14T02:26:59;7.95;;;1.83;;
13973;SDS011;7060;43.770;4.008;2022-09-14T02:29:28;7.78;;;1.70;;
13973;SDS011;7060;43.770;4.008;2022-09-14T02:32:02;9.75;;;1.80;;
13973;SDS011;7060;43.770;4.008;2022-09-14T02:34:39;6.55;;;1.50;;
13973;SDS011;7060;43.770;4.008;2022-09-14T02:37:20;4.18;;;1.70;;
13973;SDS011;7060;43.770;4.008;2022-09-14T02:39:59;3.10;;;1.38;;
13973;SDS011;7060;43.770;4.008;2022-09-14T02:42:33;3.95;;;1.48;;
13973;SDS011;7060;43.770;4.008;2022-09-14T02:45:09;6.13;;;1.60;;
13973;SDS011;7060;43.770;4.008;2022-09-14T02:47:49;7.72;;;1.63;;
13973;SDS011;7060;43.770;4.008;2022-09-14T02:50:23;5.95;;;1.50;;
13973;SDS011;7060;43.770;4.008;2022-09-14T02:52:58;7.60;;;1.50;;
13973;SDS011;7060;43.770;4.008;2022-09-14T02:55:33;7.03;;;1.63;;
13973;SDS011;7060;43.770;4.008;2022-09-14T02:58:05;4.07;;;1.75;;
13973;SDS011;7060;43.770;4.008;2022-09-14T03:00:36;6.85;;;1.50;;
13973;SDS011;7060;43.770;4.008;2022-09-14T03:03:08;7.28;;;1.60;;
13973;SDS011;7060;43.770;4.008;2022-09-14T03:05:38;7.85;;;1.73;;
13973;SDS011;7060;43.770;4.008;2022-09-14T03:08:07;4.72;;;1.98;;
13973;SDS011;7060;43.770;4.008;2022-09-14T03:10:37;7.95;;;1.63;;
13973;SDS011;7060;43.770;4.008;2022-09-14T03:13:08;7.63;;;1.98;;
13973;SDS011;7060;43.770;4.008;2022-09-14T03:15:37;3.80;;;1.90;;
13973;SDS011;7060;43.770;4.008;2022-09-14T03:18:07;8.77;;;1.50;;
13973;SDS011;7060;43.770;4.008;2022-09-14T03:20:40;7.75;;;2.28;;
13973;SDS011;7060;43.770;4.008;2022-09-14T03:23:09;10.23;;;1.85;;
13973;SDS011;7060;43.770;4.008;2022-09-14T03:25:39;4.93;;;2.00;;
13973;SDS011;7060;43.770;4.008;2022-09-14T03:28:09;5.95;;;2.33;;
13973;SDS011;7060;43.770;4.008;2022-09-14T03:30:38;8.50;;;2.20;;
13973;SDS011;7060;43.770;4.008;2022-09-14T03:33:08;8.35;;;2.38;;
13973;SDS011;7060;43.770;4.008;2022-09-14T03:35:37;6.63;;;2.35;;
13973;SDS011;7060;43.770;4.008;2022-09-14T03:38:05;7.82;;;2.90;;
13973;SDS011;7060;43.770;4.008;2022-09-14T03:40:34;6.25;;;2.17;;
13973;SDS011;7060;43.770;4.008;2022-09-14T03:43:02;5.45;;;2.60;;
13973;SDS011;7060;43.770;4.008;2022-09-14T03:45:30;5.95;;;2.40;;
13973;SDS011;7060;43.770;4.008;2022-09-14T03:47:58;4.90;;;2.58;;
13973;SDS011;7060;43.770;4.008;2022-09-14T03:50:28;11.27;;;2.45;;
13973;SDS011;7060;43.770;4.008;2022-09-14T03:52:56;7.40;;;2.80;;
13973;SDS011;7060;43.770;4.008;2022-09-14T03:55:25;5.95;;;2.70;;
13973;SDS011;7060;43.770;4.008;2022-09-14T03:57:53;5.55;;;2.42;;
13973;SDS011;7060;43.770;4.008;2022-09-14T04:00:22;8.30;;;2.67;;
13973;SDS011;7060;43.770;4.008;2022-09-14T04:02:50;5.30;;;2.47;;
13973;SDS011;7060;43.770;4.008;2022-09-14T04:05:19;6.35;;;2.70;;
13973;SDS011;7060;43.770;4.008;2022-09-14T04:07:49;9.23;;;3.20;;
13973;SDS011;7060;43.770;4.008;2022-09-14T04:10:17;7.35;;;3.28;;
13973;SDS011;7060;43.770;4.008;2022-09-14T04:12:45;3.83;;;0.85;;
13973;SDS011;7060;43.770;4.008;2022-09-14T04:15:14;2.17;;;0.70;;
13973;SDS011;7060;43.770;4.008;2022-09-14T04:17:42;11.23;;;2.55;;
13973;SDS011;7060;43.770;4.008;2022-09-14T04:20:10;11.93;;;2.35;;
13973;SDS011;7060;43.770;4.008;2022-09-14T04:22:39;11.88;;;2.22;;
13973;SDS011;7060;43.770;4.008;2022-09-14T04:25:09;11.05;;;1.38;;
13973;SDS011;7060;43.770;4.008;2022-09-14T04:27:37;9.65;;;2.00;;
13973;SDS011;7060;43.770;4.008;2022-09-14T04:30:05;6.82;;;2.05;;
13973;SDS011;7060;43.770;4.008;2022-09-14T04:32:34;9.50;;;2.20;;
13973;SDS011;7060;43.770;4.008;2022-09-14T04:35:03;5.55;;;1.50;;
13973;SDS011;7060;43.770;4.008;2022-09-14T04:37:31;4.20;;;1.33;;
13973;SDS011;7060;43.770;4.008;2022-09-14T04:40:00;2.75;;;0.88;;
13973;SDS011;7060;43.770;4.008;2022-09-14T04:42:30;6.05;;;1.10;;
13973;SDS011;7060;43.770;4.008;2022-09-14T04:44:58;4.45;;;0.80;;
13973;SDS011;7060;43.770;4.008;2022-09-14T04:47:27;3.17;;;1.00;;
13973;SDS011;7060;43.770;4.008;2022-09-14T04:49:55;3.63;;;1.00;;
13973;SDS011;7060;43.770;4.008;2022-09-14T04:52:23;6.30;;;1.30;;
13973;SDS011;7060;43.770;4.008;2022-09-14T04:54:52;3.22;;;1.25;;
13973;SDS011;7060;43.770;4.008;2022-09-14T04:57:20;3.05;;;1.17;;
13973;SDS011;7060;43.770;4.008;2022-09-14T04:59:50;4.35;;;1.10;;
13973;SDS011;7060;43.770;4.008;2022-09-14T05:02:18;6.22;;;1.23;;
13973;SDS011;7060;43.770;4.008;2022-09-14T05:04:46;2.95;;;0.88;;
13973;SDS011;7060;43.770;4.008;2022-09-14T05:07:15;5.40;;;1.33;;
13973;SDS011;7060;43.770;4.008;2022-09-14T05:09:43;5.55;;;1.40;;
13973;SDS011;7060;43.770;4.008;2022-09-14T05:12:12;4.75;;;1.13;;
13973;SDS011;7060;43.770;4.008;2022-09-14T05:14:40;3.42;;;1.27;;
13973;SDS011;7060;43.770;4.008;2022-09-14T05:17:09;8.05;;;1.20;;
13973;SDS011;7060;43.770;4.008;2022-09-14T05:19:38;6.50;;;1.33;;
13973;SDS011;7060;43.770;4.008;2022-09-14T05:22:06;2.58;;;1.20;;
13973;SDS011;7060;43.770;4.008;2022-09-14T05:24:34;3.45;;;1.15;;
13973;SDS011;7060;43.770;4.008;2022-09-14T05:27:03;4.13;;;1.02;;
13973;SDS011;7060;43.770;4.008;2022-09-14T05:29:31;3.78;;;1.33;;
13973;SDS011;7060;43.770;4.008;2022-09-14T05:31:59;2.45;;;1.15;;
13973;SDS011;7060;43.770;4.008;2022-09-14T05:34:29;4.68;;;1.30;;
13973;SDS011;7060;43.770;4.008;2022-09-14T05:36:57;3.60;;;1.10;;
13973;SDS011;7060;43.770;4.008;2022-09-14T05:39:25;7.60;;;1.70;;
13973;SDS011;7060;43.770;4.008;2022-09-14T05:41:53;3.53;;;1.70;;
13973;SDS011;7060;43.770;4.008;2022-09-14T05:44:22;4.63;;;2.00;;
13973;SDS011;7060;43.770;4.008;2022-09-14T05:46:50;6.03;;;2.08;;
13973;SDS011;7060;43.770;4.008;2022-09-14T05:49:18;4.15;;;1.67;;
13973;SDS011;7060;43.770;4.008;2022-09-14T05:51:48;5.40;;;2.53;;
13973;SDS011;7060;43.770;4.008;2022-09-14T05:54:16;3.60;;;1.70;;
13973;SDS011;7060;43.770;4.008;2022-09-14T05:56:45;5.50;;;1.83;;
13973;SDS011;7060;43.770;4.008;2022-09-14T05:59:13;4.13;;;1.67;;
13973;SDS011;7060;43.770;4.008;2022-09-14T06:01:42;3.72;;;2.10;;
13973;SDS011;7060;43.770;4.008;2022-09-14T06:04:11;5.78;;;2.20;;
13973;SDS011;7060;43.770;4.008;2022-09-14T06:06:39;4.57;;;2.03;;
13973;SDS011;7060;43.770;4.008;2022-09-14T06:09:28;4.82;;;2.25;;
13973;SDS011;7060;43.770;4.008;2022-09-14T06:11:58;7.93;;;2.60;;
13973;SDS011;7060;43.770;4.008;2022-09-14T06:14:27;5.70;;;3.28;;
13973;SDS011;7060;43.770;4.008;2022-09-14T06:16:56;3.97;;;2.95;;
13973;SDS011;7060;43.770;4.008;2022-09-14T06:19:26;6.13;;;2.58;;
13973;SDS011;7060;43.770;4.008;2022-09-14T06:21:54;2.75;;;1.80;;
13973;SDS011;7060;43.770;4.008;2022-09-14T06:24:22;3.63;;;2.42;;
13973;SDS011;7060;43.770;4.008;2022-09-14T06:26:52;7.82;;;2.72;;
13973;SDS011;7060;43.770;4.008;2022-09-14T06:29:20;2.95;;;2.22;;
13973;SDS011;7060;43.770;4.008;2022-09-14T06:31:49;3.63;;;2.25;;
13973;SDS011;7060;43.770;4.008;2022-09-14T06:34:17;5.68;;;2.50;;
13973;SDS011;7060;43.770;4.008;2022-09-14T06:36:45;3.33;;;1.90;;
13973;SDS011;7060;43.770;4.008;2022-09-14T06:39:14;5.78;;;2.83;;
13973;SDS011;7060;43.770;4.008;2022-09-14T06:41:43;5.47;;;2.75;;
13973;SDS011;7060;43.770;4.008;2022-09-14T06:44:19;5.75;;;2.95;;
13973;SDS011;7060;43.770;4.008;2022-09-14T06:46:47;5.35;;;2.70;;
13973;SDS011;7060;43.770;4.008;2022-09-14T06:49:15;4.95;;;2.92;;
13973;SDS011;7060;43.770;4.008;2022-09-14T06:51:46;5.07;;;2.88;;
13973;SDS011;7060;43.770;4.008;2022-09-14T06:54:16;3.80;;;2.45;;
13973;SDS011;7060;43.770;4.008;2022-09-14T06:56:45;3.03;;;2.35;;
13973;SDS011;7060;43.770;4.008;2022-09-14T06:59:14;3.88;;;2.45;;
13973;SDS011;7060;43.770;4.008;2022-09-14T07:01:46;4.45;;;2.53;;
13973;SDS011;7060;43.770;4.008;2022-09-14T07:04:15;4.60;;;2.72;;
13973;SDS011;7060;43.770;4.008;2022-09-14T07:06:45;5.72;;;2.58;;
13973;SDS011;7060;43.770;4.008;2022-09-14T07:09:14;2.88;;;2.50;;
13973;SDS011;7060;43.770;4.008;2022-09-14T07:11:44;5.15;;;3.05;;
13973;SDS011;7060;43.770;4.008;2022-09-14T07:14:13;3.60;;;2.45;;
13973;SDS011;7060;43.770;4.008;2022-09-14T07:16:42;3.85;;;2.65;;
13973;SDS011;7060;43.770;4.008;2022-09-14T07:19:12;3.35;;;2.30;;
13973;SDS011;7060;43.770;4.008;2022-09-14T07:21:41;6.47;;;2.30;;
13973;SDS011;7060;43.770;4.008;2022-09-14T07:24:10;5.78;;;2.67;;
13973;SDS011;7060;43.770;4.008;2022-09-14T07:26:40;3.80;;;2.42;;
13973;SDS011;7060;43.770;4.008;2022-09-14T07:29:10;4.72;;;2.92;;
13973;SDS011;7060;43.770;4.008;2022-09-14T07:31:40;4.50;;;2.03;;
13973;SDS011;7060;43.770;4.008;2022-09-14T07:34:12;5.60;;;2.10;;
13973;SDS011;7060;43.770;4.008;2022-09-14T07:36:41;4.90;;;2.78;;
13973;SDS011;7060;43.770;4.008;2022-09-14T07:39:11;3.47;;;2.53;;
13973;SDS011;7060;43.770;4.008;2022-09-14T07:41:40;3.25;;;2.55;;
13973;SDS011;7060;43.770;4.008;2022-09-14T07:44:11;5.47;;;2.50;;
13973;SDS011;7060;43.770;4.008;2022-09-14T07:46:42;2.97;;;1.95;;
13973;SDS011;7060;43.770;4.008;2022-09-14T07:49:13;2.90;;;2.08;;
13973;SDS011;7060;43.770;4.008;2022-09-14T07:51:42;3.80;;;1.85;;
13973;SDS011;7060;43.770;4.008;2022-09-14T07:54:12;2.63;;;2.08;;
13973;SDS011;7060;43.770;4.008;2022-09-14T07:56:42;2.58;;;1.58;;
13973;SDS011;7060;43.770;4.008;2022-09-14T07:59:11;2.53;;;1.73;;
13973;SDS011;7060;43.770;4.008;2022-09-14T08:02:00;2.80;;;1.48;;
13973;SDS011;7060;43.770;4.008;2022-09-14T08:04:30;5.28;;;1.23;;
13973;SDS011;7060;43.770;4.008;2022-09-14T08:06:59;5.70;;;1.25;;
13973;SDS011;7060;43.770;4.008;2022-09-14T08:09:27;2.85;;;1.05;;
13973;SDS011;7060;43.770;4.008;2022-09-14T08:11:56;4.57;;;1.58;;
13973;SDS011;7060;43.770;4.008;2022-09-14T08:14:24;1.75;;;1.35;;
13973;SDS011;7060;43.770;4.008;2022-09-14T08:16:52;1.80;;;1.38;;
13973;SDS011;7060;43.770;4.008;2022-09-14T08:19:22;2.20;;;1.20;;
13973;SDS011;7060;43.770;4.008;2022-09-14T08:21:52;5.72;;;1.50;;
13973;SDS011;7060;43.770;4.008;2022-09-14T08:24:21;6.03;;;1.58;;
13973;SDS011;7060;43.770;4.008;2022-09-14T08:26:49;3.65;;;1.20;;
13973;SDS011;7060;43.770;4.008;2022-09-14T08:29:18;7.07;;;2.88;;
13973;SDS011;7060;43.770;4.008;2022-09-14T08:31:46;6.13;;;1.60;;
13973;SDS011;7060;43.770;4.008;2022-09-14T08:34:17;4.40;;;1.83;;
13973;SDS011;7060;43.770;4.008;2022-09-14T08:36:46;6.43;;;1.55;;
13973;SDS011;7060;43.770;4.008;2022-09-14T08:39:16;3.47;;;1.67;;
13973;SDS011;7060;43.770;4.008;2022-09-14T08:41:47;3.47;;;1.50;;
13973;SDS011;7060;43.770;4.008;2022-09-14T08:44:19;5.38;;;1.48;;
13973;SDS011;7060;43.770;4.008;2022-09-14T08:46:53;7.25;;;1.70;;
13973;SDS011;7060;43.770;4.008;2022-09-14T08:49:35;3.97;;;1.70;;
13973;SDS011;7060;43.770;4.008;2022-09-14T08:52:11;5.78;;;1.35;;
13973;SDS011;7060;43.770;4.008;2022-09-14T08:54:50;1.90;;;1.25;;
13973;SDS011;7060;43.770;4.008;2022-09-14T08:57:23;2.35;;;1.17;;
13973;SDS011;7060;43.770;4.008;2022-09-14T08:59:58;2.08;;;1.17;;
13973;SDS011;7060;43.770;4.008;2022-09-14T09:02:39;3.50;;;1.40;;
13973;SDS011;7060;43.770;4.008;2022-09-14T09:05:21;6.00;;;1.73;;
13973;SDS011;7060;43.770;4.008;2022-09-14T09:07:58;2.95;;;1.40;;
13973;SDS011;7060;43.770;4.008;2022-09-14T09:10:31;2.95;;;1.00;;
13973;SDS011;7060;43.770;4.008;2022-09-14T09:13:00;6.35;;;1.60;;
13973;SDS011;7060;43.770;4.008;2022-09-14T09:15:33;5.15;;;2.22;;
13973;SDS011;7060;43.770;4.008;2022-09-14T09:18:07;3.15;;;1.30;;
13973;SDS011;7060;43.770;4.008;2022-09-14T09:20:39;3.53;;;1.42;;
13973;SDS011;7060;43.770;4.008;2022-09-14T09:23:12;2.55;;;1.50;;
13973;SDS011;7060;43.770;4.008;2022-09-14T09:25:49;3.58;;;1.45;;
13973;SDS011;7060;43.770;4.008;2022-09-14T09:28:20;2.90;;;1.40;;
13973;SDS011;7060;43.770;4.008;2022-09-14T09:30:50;4.50;;;1.60;;
13973;SDS011;7060;43.770;4.008;2022-09-14T09:33:26;1.95;;;1.45;;
13973;SDS011;7060;43.770;4.008;2022-09-14T09:36:15;1.38;;;1.08;;
13973;SDS011;7060;43.770;4.008;2022-09-14T09:38:44;4.55;;;1.42;;
13973;SDS011;7060;43.770;4.008;2022-09-14T09:41:14;9.90;;;3.60;;
13973;SDS011;7060;43.770;4.008;2022-09-14T09:43:56;5.22;;;2.42;;
13973;SDS011;7060;43.770;4.008;2022-09-14T09:46:26;2.72;;;1.80;;
13973;SDS011;7060;43.770;4.008;2022-09-14T09:48:55;6.82;;;2.92;;
13973;SDS011;7060;43.770;4.008;2022-09-14T09:51:26;4.35;;;2.25;;
13973;SDS011;7060;43.770;4.008;2022-09-14T09:53:56;2.85;;;1.80;;
13973;SDS011;7060;43.770;4.008;2022-09-14T09:56:31;2.30;;;1.67;;
13973;SDS011;7060;43.770;4.008;2022-09-14T09:59:02;4.43;;;2.67;;
13973;SDS011;7060;43.770;4.008;2022-09-14T10:01:47;9.30;;;1.70;;
13973;SDS011;7060;43.770;4.008;2022-09-14T10:04:16;2.95;;;1.92;;
13973;SDS011;7060;43.770;4.008;2022-09-14T10:06:47;3.33;;;1.95;;
13973;SDS011;7060;43.770;4.008;2022-09-14T10:09:19;2.97;;;1.70;;
13973;SDS011;7060;43.770;4.008;2022-09-14T10:11:56;4.35;;;1.63;;
13973;SDS011;7060;43.770;4.008;2022-09-14T10:14:27;6.82;;;2.80;;
13973;SDS011;7060;43.770;4.008;2022-09-14T10:17:05;4.80;;;2.35;;
13973;SDS011;7060;43.770;4.008;2022-09-14T10:19:34;4.22;;;1.63;;
13973;SDS011;7060;43.770;4.008;2022-09-14T10:22:11;2.65;;;1.65;;
13973;SDS011;7060;43.770;4.008;2022-09-14T10:24:53;2.53;;;1.50;;
13973;SDS011;7060;43.770;4.008;2022-09-14T10:27:35;2.72;;;1.42;;
13973;SDS011;7060;43.770;4.008;2022-09-14T10:30:16;3.97;;;1.70;;
13973;SDS011;7060;43.770;4.008;2022-09-14T10:32:48;11.75;;;3.22;;
13973;SDS011;7060;43.770;4.008;2022-09-14T10:35:22;12.55;;;3.33;;
13973;SDS011;7060;43.770;4.008;2022-09-14T10:38:02;4.93;;;2.22;;
13973;SDS011;7060;43.770;4.008;2022-09-14T10:40:42;4.05;;;1.70;;
13973;SDS011;7060;43.770;4.008;2022-09-14T10:43:19;5.82;;;2.38;;
13973;SDS011;7060;43.770;4.008;2022-09-14T10:45:54;4.53;;;1.70;;
13973;SDS011;7060;43.770;4.008;2022-09-14T10:48:43;4.78;;;1.80;;
13973;SDS011;7060;43.770;4.008;2022-09-14T10:54:15;7.45;;;1.73;;
13973;SDS011;7060;43.770;4.008;2022-09-14T10:57:01;3.75;;;1.60;;
13973;SDS011;7060;43.770;4.008;2022-09-14T10:59:43;6.70;;;2.45;;
13973;SDS011;7060;43.770;4.008;2022-09-14T11:02:38;6.78;;;2.10;;
13973;SDS011;7060;43.770;4.008;2022-09-14T11:05:33;8.48;;;1.42;;
13973;SDS011;7060;43.770;4.008;2022-09-14T11:08:12;6.28;;;1.98;;
13973;SDS011;7060;43.770;4.008;2022-09-14T11:10:52;7.65;;;1.77;;
13973;SDS011;7060;43.770;4.008;2022-09-14T11:13:40;9.15;;;2.47;;
13973;SDS011;7060;43.770;4.008;2022-09-14T11:16:23;10.95;;;1.92;;
13973;SDS011;7060;43.770;4.008;2022-09-14T11:18:59;6.65;;;1.73;;
13973;SDS011;7060;43.770;4.008;2022-09-14T11:21:36;7.28;;;2.33;;
13973;SDS011;7060;43.770;4.008;2022-09-14T11:24:12;7.70;;;1.90;;
13973;SDS011;7060;43.770;4.008;2022-09-14T11:26:49;8.50;;;2.20;;
13973;SDS011;7060;43.770;4.008;2022-09-14T11:29:27;6.32;;;2.00;;
13973;SDS011;7060;43.770;4.008;2022-09-14T11:32:01;6.40;;;2.10;;
13973;SDS011;7060;43.770;4.008;2022-09-14T11:34:48;12.52;;;3.03;;
13973;SDS011;7060;43.770;4.008;2022-09-14T11:37:24;13.05;;;3.80;;
13973;SDS011;7060;43.770;4.008;2022-09-14T11:40:01;6.78;;;1.80;;
13973;SDS011;7060;43.770;4.008;2022-09-14T11:42:37;10.68;;;2.72;;
13973;SDS011;7060;43.770;4.008;2022-09-14T11:45:13;7.22;;;2.30;;
13973;SDS011;7060;43.770;4.008;2022-09-14T11:47:52;7.65;;;2.85;;
13973;SDS011;7060;43.770;4.008;2022-09-14T11:50:27;10.05;;;3.10;;
13973;SDS011;7060;43.770;4.008;2022-09-14T11:53:02;8.73;;;2.25;;
13973;SDS011;7060;43.770;4.008;2022-09-14T11:55:36;9.75;;;2.13;;
13973;SDS011;7060;43.770;4.008;2022-09-14T11:58:13;11.85;;;2.75;;
13973;SDS011;7060;43.770;4.008;2022-09-14T12:00:59;13.40;;;2.78;;
13973;SDS011;7060;43.770;4.008;2022-09-14T12:03:52;8.63;;;2.88;;
13973;SDS011;7060;43.770;4.008;2022-09-14T12:12:35;13.80;;;2.67;;
13973;SDS011;7060;43.770;4.008;2022-09-14T12:15:15;9.23;;;2.58;;
13973;SDS011;7060;43.770;4.008;2022-09-14T12:17:48;17.05;;;2.80;;
13973;SDS011;7060;43.770;4.008;2022-09-14T12:20:36;14.57;;;3.00;;
13973;SDS011;7060;43.770;4.008;2022-09-14T12:23:21;12.80;;;2.00;;
13973;SDS011;7060;43.770;4.008;2022-09-14T12:25:53;12.95;;;2.72;;
13973;SDS011;7060;43.770;4.008;2022-09-14T12:28:27;15.35;;;2.72;;
13973;SDS011;7060;43.770;4.008;2022-09-14T12:55:05;11.80;;;2.70;;
13973;SDS011;7060;43.770;4.008;2022-09-14T12:57:47;16.20;;;2.90;;
13973;SDS011;7060;43.770;4.008;2022-09-14T13:00:20;14.57;;;2.78;;
13973;SDS011;7060;43.770;4.008;2022-09-14T13:05:52;17.52;;;3.47;;
13973;SDS011;7060;43.770;4.008;2022-09-14T13:08:21;11.38;;;2.95;;
13973;SDS011;7060;43.770;4.008;2022-09-14T13:10:51;15.85;;;3.42;;
13973;SDS011;7060;43.770;4.008;2022-09-14T13:13:21;13.27;;;3.00;;
13973;SDS011;7060;43.770;4.008;2022-09-14T13:15:54;13.45;;;3.47;;
13973;SDS011;7060;43.770;4.008;2022-09-14T13:18:30;12.45;;;2.50;;
13973;SDS011;7060;43.770;4.008;2022-09-14T13:21:01;15.52;;;3.33;;
13973;SDS011;7060;43.770;4.008;2022-09-14T13:23:34;18.23;;;3.90;;
13973;SDS011;7060;43.770;4.008;2022-09-14T13:26:08;16.13;;;3.22;;
13973;SDS011;7060;43.770;4.008;2022-09-14T13:28:38;9.07;;;2.72;;
13973;SDS011;7060;43.770;4.008;2022-09-14T13:31:11;10.20;;;2.25;;
13973;SDS011;7060;43.770;4.008;2022-09-14T13:33:46;14.70;;;3.03;;
13973;SDS011;7060;43.770;4.008;2022-09-14T13:36:17;13.25;;;2.95;;
13973;SDS011;7060;43.770;4.008;2022-09-14T13:38:47;12.45;;;3.45;;
13973;SDS011;7060;43.770;4.008;2022-09-14T13:41:18;15.45;;;2.95;;
13973;SDS011;7060;43.770;4.008;2022-09-14T13:43:48;11.88;;;2.85;;
13973;SDS011;7060;43.770;4.008;2022-09-14T13:46:21;8.88;;;2.70;;
13973;SDS011;7060;43.770;4.008;2022-09-14T13:48:52;11.75;;;3.17;;
13973;SDS011;7060;43.770;4.008;2022-09-14T13:51:22;10.05;;;2.90;;
13973;SDS011;7060;43.770;4.008;2022-09-14T13:53:53;12.32;;;3.20;;
13973;SDS011;7060;43.770;4.008;2022-09-14T13:56:24;13.05;;;2.53;;
13973;SDS011;7060;43.770;4.008;2022-09-14T13:59:16;19.40;;;2.80;;
13973;SDS011;7060;43.770;4.008;2022-09-14T14:01:51;9.48;;;2.47;;
13973;SDS011;7060;43.770;4.008;2022-09-14T14:04:28;9.02;;;2.47;;
13973;SDS011;7060;43.770;4.008;2022-09-14T14:07:02;9.30;;;2.30;;
13973;SDS011;7060;43.770;4.008;2022-09-14T14:09:40;14.85;;;3.25;;
13973;SDS011;7060;43.770;4.008;2022-09-14T14:12:19;10.90;;;2.70;;
13973;SDS011;7060;43.770;4.008;2022-09-14T14:14:54;14.02;;;3.05;;
13973;SDS011;7060;43.770;4.008;2022-09-14T14:17:29;15.93;;;2.85;;
13973;SDS011;7060;43.770;4.008;2022-09-14T14:22:57;15.05;;;3.35;;
13973;SDS011;7060;43.770;4.008;2022-09-14T14:25:29;11.13;;;3.10;;
13973;SDS011;7060;43.770;4.008;2022-09-14T14:27:59;8.32;;;2.88;;
13973;SDS011;7060;43.770;4.008;2022-09-14T14:30:29;10.80;;;2.70;;
13973;SDS011;7060;43.770;4.008;2022-09-14T14:33:00;13.65;;;3.05;;
13973;SDS011;7060;43.770;4.008;2022-09-14T14:35:30;14.10;;;3.03;;
13973;SDS011;7060;43.770;4.008;2022-09-14T14:37:58;14.68;;;3.35;;
13973;SDS011;7060;43.770;4.008;2022-09-14T14:40:26;14.35;;;3.17;;
13973;SDS011;7060;43.770;4.008;2022-09-14T14:42:55;14.82;;;3.60;;
13973;SDS011;7060;43.770;4.008;2022-09-14T14:45:25;11.63;;;3.25;;
13973;SDS011;7060;43.770;4.008;2022-09-14T14:47:55;19.48;;;3.63;;
13973;SDS011;7060;43.770;4.008;2022-09-14T14:50:26;16.98;;;4.03;;
13973;SDS011;7060;43.770;4.008;2022-09-14T14:52:57;11.88;;;2.95;;
13973;SDS011;7060;43.770;4.008;2022-09-14T14:55:26;11.60;;;3.50;;
13973;SDS011;7060;43.770;4.008;2022-09-14T14:57:58;11.73;;;3.67;;
13973;SDS011;7060;43.770;4.008;2022-09-14T15:00:29;18.05;;;3.88;;
13973;SDS011;7060;43.770;4.008;2022-09-14T15:02:59;13.07;;;3.65;;
13973;SDS011;7060;43.770;4.008;2022-09-14T15:05:27;11.63;;;3.15;;
13973;SDS011;7060;43.770;4.008;2022-09-14T15:07:58;14.45;;;3.15;;
13973;SDS011;7060;43.770;4.008;2022-09-14T15:10:26;11.90;;;3.67;;
13973;SDS011;7060;43.770;4.008;2022-09-14T15:12:56;12.88;;;3.53;;
13973;SDS011;7060;43.770;4.008;2022-09-14T15:15:24;14.15;;;3.20;;
13973;SDS011;7060;43.770;4.008;2022-09-14T15:17:53;11.52;;;3.47;;
13973;SDS011;7060;43.770;4.008;2022-09-14T15:20:21;13.18;;;3.03;;
13973;SDS011;7060;43.770;4.008;2022-09-14T15:22:50;14.93;;;3.70;;
13973;SDS011;7060;43.770;4.008;2022-09-14T15:25:20;14.93;;;3.90;;
13973;SDS011;7060;43.770;4.008;2022-09-14T15:27:48;13.68;;;3.92;;
13973;SDS011;7060;43.770;4.008;2022-09-14T15:30:17;14.85;;;3.33;;
13973;SDS011;7060;43.770;4.008;2022-09-14T15:32:45;14.75;;;4.15;;
13973;SDS011;7060;43.770;4.008;2022-09-14T15:35:14;15.68;;;3.63;;
13973;SDS011;7060;43.770;4.008;2022-09-14T15:37:42;13.70;;;3.58;;
13973;SDS011;7060;43.770;4.008;2022-09-14T15:40:11;9.10;;;2.97;;
13973;SDS011;7060;43.770;4.008;2022-09-14T15:42:40;14.95;;;4.25;;
13973;SDS011;7060;43.770;4.008;2022-09-14T15:45:09;11.00;;;3.55;;
13973;SDS011;7060;43.770;4.008;2022-09-14T15:47:40;13.52;;;3.35;;
13973;SDS011;7060;43.770;4.008;2022-09-14T15:50:09;12.32;;;3.70;;
13973;SDS011;7060;43.770;4.008;2022-09-14T15:52:38;10.70;;;3.70;;
13973;SDS011;7060;43.770;4.008;2022-09-14T15:55:07;17.83;;;4.25;;
13973;SDS011;7060;43.770;4.008;2022-09-14T15:57:37;9.15;;;2.80;;
13973;SDS011;7060;43.770;4.008;2022-09-14T16:00:09;17.50;;;4.00;;
13973;SDS011;7060;43.770;4.008;2022-09-14T16:02:39;18.70;;;4.10;;
13973;SDS011;7060;43.770;4.008;2022-09-14T16:05:07;16.48;;;3.42;;
13973;SDS011;7060;43.770;4.008;2022-09-14T16:07:36;11.52;;;3.25;;
13973;SDS011;7060;43.770;4.008;2022-09-14T16:10:05;21.27;;;4.13;;
13973;SDS011;7060;43.770;4.008;2022-09-14T16:12:34;15.95;;;3.70;;